Time;durP1;ratioP1;P1;durP2;ratioP2;P2;SDS_P1;SDS_P2;PMS_P1;PMS_P2;Temp;Humidity;BMP_temperature;BMP_pressure;BME280_temperature;BME280_humidity;BME280_pressure;Samples;Min_cycle;Max_cycle;Signal;HPM_P1;HPM_P2
2021/01/03 00:01:13;;;;;;;162.80;91.18;;;17.20;62.90;;;;;;5111896;28;20050;-58
2021/01/03 00:03:39;;;;;;;170.07;93.75;;;17.20;63.10;;;;;;5111938;28;20023;-58
2021/01/03 00:06:06;;;;;;;176.20;98.97;;;17.20;63.50;;;;;;5110838;28;20058;-58
2021/01/03 00:08:31;;;;;;;175.75;96.72;;;17.20;63.80;;;;;;5112027;28;20020;-58
2021/01/03 00:10:57;;;;;;;172.98;99.22;;;17.20;64.10;;;;;;5111795;28;20096;-58
2021/01/03 00:13:23;;;;;;;169.65;95.20;;;17.20;64.40;;;;;;5093714;28;20644;-58
2021/01/03 00:15:49;;;;;;;172.38;94.50;;;17.30;64.50;;;;;;5112584;28;20038;-58
2021/01/03 00:18:14;;;;;;;169.80;94.82;;;17.30;64.50;;;;;;5113685;28;20525;-58
2021/01/03 00:20:41;;;;;;;166.40;92.28;;;17.30;64.50;;;;;;5113944;28;20023;-58
2021/01/03 00:23:06;;;;;;;161.75;92.07;;;17.30;64.40;;;;;;5113910;28;20503;-58
2021/01/03 00:25:33;;;;;;;147.45;85.00;;;17.30;64.50;;;;;;5113836;28;20067;-58
2021/01/03 00:27:59;;;;;;;165.85;93.18;;;17.20;64.90;;;;;;5112686;28;20488;-58
2021/01/03 00:30:27;;;;;;;166.68;94.05;;;17.20;65.10;;;;;;5114014;28;20028;-58
2021/01/03 00:32:54;;;;;;;171.38;91.50;;;17.10;65.20;;;;;;5114281;28;20062;-58
2021/01/03 00:35:27;;;;;;;160.95;89.78;;;17.10;65.40;;;;;;5113821;28;20032;-57
2021/01/03 00:37:55;;;;;;;162.02;89.57;;;17.10;65.70;;;;;;5113712;28;20024;-57
2021/01/03 00:40:21;;;;;;;153.27;87.63;;;17.00;65.90;;;;;;5113916;28;20088;-57
2021/01/03 00:42:47;;;;;;;154.13;88.53;;;17.00;66.00;;;;;;5113755;28;20027;-57
2021/01/03 00:45:14;;;;;;;145.55;83.85;;;17.00;66.10;;;;;;5113606;28;20042;-57
2021/01/03 00:47:40;;;;;;;149.00;82.60;;;16.90;66.30;;;;;;5114019;28;20031;-57
2021/01/03 00:50:08;;;;;;;140.70;81.03;;;16.90;66.60;;;;;;5113599;28;20076;-58
2021/01/03 00:52:34;;;;;;;149.00;84.18;;;16.90;66.50;;;;;;5113768;28;20030;-57
2021/01/03 00:55:00;;;;;;;156.00;84.68;;;16.90;66.60;;;;;;5113822;28;20027;-58
2021/01/03 00:57:26;;;;;;;135.15;78.32;;;16.80;66.80;;;;;;5113447;28;20035;-58
2021/01/03 00:59:52;;;;;;;149.05;80.25;;;16.80;67.50;;;;;;5114118;28;20537;-58
2021/01/03 01:02:17;;;;;;;154.23;80.35;;;16.80;66.70;;;;;;5113694;28;20023;-57
2021/01/03 01:04:43;;;;;;;138.07;78.30;;;16.80;66.70;;;;;;5113598;28;20036;-57
2021/01/03 01:07:09;;;;;;;139.10;76.57;;;16.80;66.60;;;;;;5113689;28;20024;-57
2021/01/03 01:09:34;;;;;;;136.88;76.05;;;16.80;66.60;;;;;;5113452;28;20493;-58
2021/01/03 01:12:00;;;;;;;133.13;76.05;;;16.80;66.40;;;;;;5114130;28;20480;-57
2021/01/03 01:14:25;;;;;;;138.40;74.03;;;16.90;67.30;;;;;;5113566;28;20031;-58
2021/01/03 01:16:51;;;;;;;138.90;75.20;;;16.90;66.30;;;;;;5113432;28;20019;-57
2021/01/03 01:19:17;;;;;;;140.10;73.88;;;16.90;66.40;;;;;;5113617;28;20427;-58
2021/01/03 01:21:42;;;;;;;120.55;69.07;;;16.90;66.10;;;;;;5113405;28;20461;-57
2021/01/03 01:24:08;;;;;;;125.13;72.00;;;16.90;65.80;;;;;;5113310;28;20074;-58
2021/01/03 01:26:34;;;;;;;125.85;69.28;;;16.90;65.80;;;;;;5113531;28;20051;-57
2021/01/03 01:29:00;;;;;;;121.03;67.72;;;16.80;66.40;;;;;;5113847;28;20020;-58
2021/01/03 01:31:25;;;;;;;123.35;66.05;;;16.70;66.50;;;;;;5115682;28;20104;-58
2021/01/03 01:33:51;;;;;;;119.38;67.13;;;16.80;66.50;;;;;;5116851;28;20024;-58
2021/01/03 01:36:17;;;;;;;122.55;66.55;;;16.80;66.40;;;;;;5115804;28;20046;-57
2021/01/03 01:38:42;;;;;;;117.88;67.57;;;16.90;66.10;;;;;;5116863;28;20032;-58
2021/01/03 01:41:08;;;;;;;121.45;63.97;;;16.90;66.20;;;;;;5116924;28;20024;-58
2021/01/03 01:43:34;;;;;;;122.13;65.38;;;16.90;66.40;;;;;;5116712;28;20023;-57
2021/01/03 01:46:00;;;;;;;114.05;62.65;;;17.00;66.40;;;;;;5116774;28;20035;-57
2021/01/03 01:48:32;;;;;;;112.20;61.60;;;17.10;66.40;;;;;;5116541;28;20047;-58
2021/01/03 01:51:14;;;;;;;111.80;61.75;;;17.20;66.30;;;;;;5116591;27;20080;-57
2021/01/03 01:54:03;;;;;;;109.40;59.25;;;17.20;66.10;;;;;;5116963;28;20492;-57
2021/01/03 01:56:52;;;;;;;103.43;59.83;;;17.30;65.70;;;;;;5116539;28;20035;-57
2021/01/03 01:59:43;;;;;;;103.88;59.28;;;17.30;65.50;;;;;;5116681;28;20020;-57
2021/01/03 02:02:12;;;;;;;105.75;58.85;;;17.30;65.40;;;;;;5114037;28;20114;-58
2021/01/03 02:04:49;;;;;;;100.13;56.20;;;17.40;65.30;;;;;;5116299;28;20032;-57
2021/01/03 02:07:26;;;;;;;104.10;54.42;;;17.50;65.10;;;;;;5116283;28;20481;-57
2021/01/03 02:10:10;;;;;;;93.78;55.10;;;17.70;64.60;;;;;;5116499;28;20047;-57
2021/01/03 02:12:42;;;;;;;90.63;51.42;;;17.70;64.00;;;;;;5116701;28;20027;-57
2021/01/03 02:15:26;;;;;;;95.53;54.05;;;17.90;63.00;;;;;;5116483;28;20051;-57
2021/01/03 02:17:51;;;;;;;95.53;53.17;;;17.90;63.80;;;;;;5116214;28;20028;-57
2021/01/03 02:20:18;;;;;;;88.43;49.97;;;17.80;63.90;;;;;;5116197;28;20055;-58
2021/01/03 02:23:00;;;;;;;92.90;51.58;;;17.80;64.00;;;;;;5116035;28;20043;-57
2021/01/03 02:25:25;;;;;;;92.70;52.83;;;17.70;64.20;;;;;;5116267;28;20036;-57
2021/01/03 02:28:12;;;;;;;97.05;52.38;;;17.60;64.30;;;;;;5116669;28;20431;-57
2021/01/03 02:30:40;;;;;;;90.20;48.85;;;17.60;64.50;;;;;;5116502;28;20465;-57
2021/01/03 02:33:17;;;;;;;90.30;48.72;;;17.60;64.70;;;;;;5115507;28;20040;-58
2021/01/03 02:35:46;;;;;;;83.68;47.10;;;17.50;65.00;;;;;;5115719;28;20035;-57
2021/01/03 02:38:14;;;;;;;89.97;48.45;;;17.50;64.90;;;;;;5115752;28;20084;-57
2021/01/03 02:40:39;;;;;;;88.80;48.45;;;17.50;65.20;;;;;;5115491;28;20059;-57
2021/01/03 02:43:05;;;;;;;82.45;45.58;;;17.40;65.20;;;;;;5115468;28;20395;-57
2021/01/03 02:45:32;;;;;;;82.05;45.00;;;17.40;65.30;;;;;;5115505;28;20388;-57
2021/01/03 02:48:08;;;;;;;88.10;46.17;;;17.40;65.40;;;;;;5115601;28;20020;-57
2021/01/03 02:50:34;;;;;;;82.85;45.88;;;17.40;65.60;;;;;;5115651;28;20094;-57
2021/01/03 02:53:00;;;;;;;78.65;45.03;;;17.40;65.60;;;;;;5115315;28;20034;-57
2021/01/03 02:55:25;;;;;;;77.22;42.65;;;17.30;66.40;;;;;;5115441;28;20138;-57
2021/01/03 02:57:51;;;;;;;79.60;44.13;;;17.30;65.80;;;;;;5115336;28;20030;-57
2021/01/03 03:00:26;;;;;;;72.63;40.80;;;17.30;65.80;;;;;;5115529;28;20031;-58
2021/01/03 03:02:52;;;;;;;78.55;44.00;;;17.20;65.80;;;;;;5115100;28;20114;-57
2021/01/03 03:05:19;;;;;;;78.35;39.80;;;17.20;65.90;;;;;;5115225;28;20039;-57
2021/01/03 03:07:45;;;;;;;70.75;42.03;;;17.20;65.70;;;;;;5115415;28;20034;-57
2021/01/03 03:10:11;;;;;;;78.43;43.40;;;17.20;65.60;;;;;;5115249;28;20051;-57
2021/01/03 03:12:37;;;;;;;72.72;39.65;;;17.20;65.80;;;;;;5114796;28;20107;-57
2021/01/03 03:15:08;;;;;;;69.60;38.33;;;17.10;66.00;;;;;;5115013;28;20074;-57
2021/01/03 03:17:33;;;;;;;68.38;37.92;;;17.10;66.00;;;;;;5115513;28;20077;-57
2021/01/03 03:19:59;;;;;;;73.13;38.33;;;17.20;66.00;;;;;;5114802;28;20031;-57
2021/01/03 03:22:25;;;;;;;67.53;38.08;;;17.20;65.90;;;;;;5114721;28;20024;-57
2021/01/03 03:24:50;;;;;;;69.72;37.17;;;17.20;65.70;;;;;;5114613;28;20032;-58
2021/01/03 03:27:16;;;;;;;67.90;39.13;;;17.20;65.80;;;;;;5114876;28;20020;-57
2021/01/03 03:29:41;;;;;;;65.32;37.65;;;17.10;65.60;;;;;;5114838;28;20034;-57
2021/01/03 03:32:07;;;;;;;62.08;36.25;;;17.10;65.70;;;;;;5114828;28;20045;-57
2021/01/03 03:34:33;;;;;;;66.40;37.75;;;17.00;65.80;;;;;;5114703;28;20495;-57
2021/01/03 03:36:59;;;;;;;65.50;35.80;;;17.00;65.90;;;;;;5114654;28;20381;-57
2021/01/03 03:39:26;;;;;;;66.57;36.83;;;17.00;66.10;;;;;;5114582;28;20034;-57
2021/01/03 03:41:56;;;;;;;59.58;33.25;;;17.00;66.30;;;;;;5114580;28;20027;-57
2021/01/03 03:44:23;;;;;;;69.93;35.70;;;17.00;66.50;;;;;;5114379;28;20061;-57
2021/01/03 03:47:02;;;;;;;56.75;31.92;;;17.00;66.60;;;;;;5114354;27;20039;-57
2021/01/03 03:49:28;;;;;;;59.88;31.52;;;17.10;66.40;;;;;;5114523;28;20063;-57
2021/01/03 03:51:55;;;;;;;59.35;33.22;;;17.10;66.70;;;;;;5114411;28;20027;-58
2021/01/03 03:54:22;;;;;;;59.30;31.90;;;17.20;66.40;;;;;;5113784;28;20027;-57
2021/01/03 03:56:56;;;;;;;58.63;34.05;;;17.20;66.30;;;;;;5114361;28;20024;-57
2021/01/03 03:59:23;;;;;;;66.20;33.88;;;17.40;65.80;;;;;;5114296;28;20031;-57
2021/01/03 04:01:49;;;;;;;54.67;31.38;;;17.40;65.50;;;;;;5114108;28;20024;-57
2021/01/03 04:04:16;;;;;;;53.38;30.08;;;17.50;65.70;;;;;;5114035;28;20023;-57
2021/01/03 04:06:41;;;;;;;57.15;30.58;;;17.50;65.20;;;;;;5114195;28;20027;-57
2021/01/03 04:09:07;;;;;;;53.58;28.45;;;17.50;65.20;;;;;;5114073;28;20040;-58
2021/01/03 04:11:37;;;;;;;54.08;29.33;;;17.50;65.00;;;;;;5114688;28;20020;-57
2021/01/03 04:14:03;;;;;;;48.80;27.67;;;17.60;64.40;;;;;;5114156;28;20031;-57
2021/01/03 04:16:28;;;;;;;46.75;26.10;;;17.80;63.70;;;;;;5114047;28;20030;-57
2021/01/03 04:18:54;;;;;;;47.63;27.30;;;17.90;63.20;;;;;;5114321;28;20526;-58
2021/01/03 04:21:19;;;;;;;47.33;26.95;;;17.90;63.00;;;;;;5114329;28;20066;-57
2021/01/03 04:23:45;;;;;;;51.53;26.67;;;17.90;63.30;;;;;;5114033;28;20023;-57
2021/01/03 04:26:18;;;;;;;48.15;27.13;;;17.80;63.70;;;;;;5113943;28;20081;-57
2021/01/03 04:28:45;;;;;;;50.85;28.10;;;17.70;63.90;;;;;;5113897;28;20036;-57
2021/01/03 04:31:11;;;;;;;47.60;25.90;;;17.60;64.20;;;;;;5113961;28;20023;-57
2021/01/03 04:33:39;;;;;;;47.67;26.10;;;17.60;64.50;;;;;;5113732;28;20080;-57
2021/01/03 04:36:05;;;;;;;46.53;25.55;;;17.60;64.50;;;;;;5113977;28;20038;-57
2021/01/03 04:38:30;;;;;;;43.10;24.95;;;17.50;64.60;;;;;;5113651;28;20029;-57
2021/01/03 04:40:56;;;;;;;48.40;25.80;;;17.50;64.60;;;;;;5113731;28;20031;-57
2021/01/03 04:43:25;;;;;;;44.05;24.50;;;17.50;64.70;;;;;;5114033;28;20026;-57
2021/01/03 04:46:00;;;;;;;43.50;23.85;;;17.50;64.70;;;;;;5113825;28;20064;-57
2021/01/03 04:48:30;;;;;;;42.35;23.08;;;17.40;64.80;;;;;;5113812;28;20063;-57
2021/01/03 04:51:20;;;;;;;39.63;23.70;;;17.40;64.90;;;;;;5113546;28;20028;-57
2021/01/03 04:53:54;;;;;;;47.42;25.10;;;17.40;64.90;;;;;;5114027;28;20027;-57
2021/01/03 04:56:41;;;;;;;44.00;25.20;;;17.40;64.90;;;;;;5113658;28;20465;-58
2021/01/03 04:59:15;;;;;;;45.13;22.95;;;17.40;65.10;;;;;;5114007;28;20106;-57
2021/01/03 05:02:05;;;;;;;41.92;22.88;;;17.30;65.20;;;;;;5113750;28;20542;-57
2021/01/03 05:04:54;;;;;;;42.63;22.25;;;17.30;65.20;;;;;;5114660;28;20473;-57
2021/01/03 05:07:42;;;;;;;38.17;20.50;;;17.30;65.30;;;;;;5117923;28;20032;-57
2021/01/03 05:10:29;;;;;;;39.13;21.75;;;17.30;65.70;;;;;;5117567;28;20375;-57
2021/01/03 05:13:13;;;;;;;36.58;20.90;;;17.30;65.80;;;;;;5117464;28;20020;-57
2021/01/03 05:15:38;;;;;;;38.28;20.33;;;17.40;65.30;;;;;;5117330;28;20023;-57
2021/01/03 05:18:05;;;;;;;40.10;21.38;;;17.50;64.90;;;;;;5117735;28;20030;-57
2021/01/03 05:20:31;;;;;;;35.53;20.70;;;17.60;64.40;;;;;;5117374;28;20024;-57
2021/01/03 05:23:19;;;;;;;35.95;19.88;;;17.80;63.80;;;;;;5117396;28;20023;-57
2021/01/03 05:25:46;;;;;;;33.95;18.13;;;17.90;63.50;;;;;;5117112;28;20047;-57
2021/01/03 05:28:25;;;;;;;33.53;19.05;;;17.90;63.50;;;;;;5116913;28;20035;-57
2021/01/03 05:30:52;;;;;;;38.97;20.23;;;18.00;63.50;;;;;;5117209;28;20480;-57
2021/01/03 05:33:27;;;;;;;34.25;19.27;;;18.10;63.00;;;;;;5117120;28;20016;-57
2021/01/03 05:35:54;;;;;;;32.92;19.05;;;18.10;62.70;;;;;;5117087;27;20059;-58
2021/01/03 05:38:41;;;;;;;34.55;19.13;;;18.20;62.50;;;;;;5117018;28;20035;-57
2021/01/03 05:41:13;;;;;;;33.60;18.42;;;18.40;62.20;;;;;;5116937;28;20028;-57
2021/01/03 05:43:39;;;;;;;32.75;19.20;;;18.40;62.00;;;;;;5116839;28;20106;-57
2021/01/03 05:46:21;;;;;;;32.08;17.95;;;18.50;61.80;;;;;;5116725;28;20118;-57
2021/01/03 05:48:59;;;;;;;29.42;17.52;;;18.50;61.50;;;;;;5117541;28;20114;-57
2021/01/03 05:51:34;;;;;;;29.42;16.52;;;18.60;61.50;;;;;;5116683;28;20035;-57
2021/01/03 05:54:06;;;;;;;25.80;16.73;;;18.60;61.40;;;;;;5116528;28;20050;-57
2021/01/03 05:56:34;;;;;;;32.33;18.08;;;18.70;61.10;;;;;;5116662;28;20027;-57
2021/01/03 05:59:00;;;;;;;32.80;17.45;;;18.80;60.90;;;;;;5116272;28;20034;-57
2021/01/03 06:01:29;;;;;;;32.55;16.70;;;18.80;60.90;;;;;;5116313;28;20027;-57
2021/01/03 06:04:06;;;;;;;32.63;18.35;;;18.90;60.80;;;;;;5116516;28;20028;-57
2021/01/03 06:06:45;;;;;;;30.95;17.33;;;18.90;60.80;;;;;;5116398;28;20477;-57
2021/01/03 06:09:12;;;;;;;29.40;16.40;;;18.90;60.60;;;;;;5116328;28;20071;-58
2021/01/03 06:11:38;;;;;;;28.48;14.63;;;19.00;60.40;;;;;;5116870;28;20023;-57
2021/01/03 06:14:03;;;;;;;27.67;15.00;;;19.10;60.20;;;;;;5116380;28;20023;-57
2021/01/03 06:16:36;;;;;;;28.83;16.23;;;19.10;59.90;;;;;;5115780;28;20032;-57
2021/01/03 06:19:06;;;;;;;28.50;16.42;;;19.20;60.00;;;;;;5116234;27;20039;-57
2021/01/03 06:21:38;;;;;;;27.52;16.20;;;19.20;59.90;;;;;;5116171;28;20039;-57
2021/01/03 06:24:11;;;;;;;25.45;14.25;;;19.20;59.80;;;;;;5116633;28;20050;-58
2021/01/03 06:26:51;;;;;;;28.38;15.23;;;19.20;59.80;;;;;;5116108;28;20039;-57
2021/01/03 06:29:38;;;;;;;26.65;14.95;;;19.30;59.80;;;;;;5116033;28;20487;-57
2021/01/03 06:32:25;;;;;;;25.63;14.15;;;19.20;59.90;;;;;;5115975;28;20529;-58
2021/01/03 06:34:58;;;;;;;24.77;13.88;;;19.10;60.00;;;;;;5116612;28;20039;-57
2021/01/03 06:37:47;;;;;;;25.60;14.00;;;19.10;60.00;;;;;;5116137;28;20035;-57
2021/01/03 06:40:22;;;;;;;26.70;13.63;;;19.10;60.30;;;;;;5115715;28;20031;-57
2021/01/03 06:43:10;;;;;;;25.52;13.52;;;19.00;60.40;;;;;;5115796;28;20024;-57
2021/01/03 06:45:57;;;;;;;23.38;13.13;;;18.90;60.70;;;;;;5115770;28;20433;-57
2021/01/03 06:48:41;;;;;;;22.77;12.85;;;18.90;60.70;;;;;;5115605;28;20350;-57
2021/01/03 06:51:18;;;;;;;19.88;11.50;;;18.80;61.00;;;;;;5115980;28;20043;-57
2021/01/03 06:54:18;;;;;;;22.65;13.02;;;18.70;61.10;;;;;;5115278;28;20112;-57
2021/01/03 06:56:57;;;;;;;22.52;12.43;;;18.70;61.30;;;;;;5115668;28;20027;-57
2021/01/03 06:59:47;;;;;;;22.67;12.88;;;18.70;61.50;;;;;;5115753;28;20023;-57
2021/01/03 07:02:22;;;;;;;21.02;12.07;;;18.60;61.60;;;;;;5115354;28;20465;-57
2021/01/03 07:04:48;;;;;;;22.88;11.73;;;18.60;61.80;;;;;;5115452;27;20438;-57
2021/01/03 07:07:26;;;;;;;20.38;11.60;;;18.50;61.90;;;;;;5115345;28;20023;-57
2021/01/03 07:09:59;;;;;;;20.17;12.82;;;18.50;62.10;;;;;;5115207;27;20520;-57
2021/01/03 07:12:51;;;;;;;19.67;10.85;;;18.40;62.10;;;;;;5114862;28;20032;-57
2021/01/03 07:15:37;;;;;;;19.52;10.88;;;18.40;62.30;;;;;;5112967;28;20118;-57
2021/01/03 07:18:18;;;;;;;22.40;10.48;;;18.30;62.30;;;;;;5115067;28;20031;-57
2021/01/03 07:20:52;;;;;;;;;;;18.30;62.50;;;;;;5115299;28;20028;-57
2021/01/03 07:23:20;;;;;;;20.42;10.68;;;18.20;62.80;;;;;;5114937;28;19904;-57
2021/01/03 07:25:55;;;;;;;17.15;9.80;;;18.30;62.50;;;;;;5114598;28;20031;-57
2021/01/03 07:28:31;;;;;;;16.98;10.38;;;18.40;62.20;;;;;;5113907;28;20118;-57
2021/01/03 07:31:17;;;;;;;18.63;9.85;;;18.50;62.00;;;;;;5115190;28;20054;-57
2021/01/03 07:34:03;;;;;;;17.90;9.20;;;18.50;61.90;;;;;;5115044;28;20023;-57
2021/01/03 07:36:34;;;;;;;19.10;10.32;;;18.40;62.00;;;;;;5114601;28;20080;-58
2021/01/03 07:39:13;;;;;;;17.00;9.18;;;18.50;61.80;;;;;;5114561;28;20023;-57
2021/01/03 07:41:39;;;;;;;18.42;9.20;;;18.50;61.60;;;;;;5114681;28;20028;-57
2021/01/03 07:44:09;;;;;;;16.13;8.55;;;18.50;61.40;;;;;;5114287;28;20088;-57
2021/01/03 07:46:46;;;;;;;16.45;9.23;;;18.60;61.10;;;;;;5114353;28;20127;-57
2021/01/03 07:49:25;;;;;;;15.48;8.88;;;18.60;60.90;;;;;;5114122;28;20078;-57
2021/01/03 07:51:50;;;;;;;18.42;9.95;;;18.70;60.80;;;;;;5114465;28;20373;-57
2021/01/03 07:54:16;;;;;;;16.40;8.43;;;18.80;60.70;;;;;;5114728;28;20035;-57
2021/01/03 07:56:41;;;;;;;16.85;9.32;;;18.80;60.40;;;;;;5114538;28;20106;-57
2021/01/03 07:59:07;;;;;;;16.40;8.93;;;18.80;60.20;;;;;;5114385;28;20026;-57
2021/01/03 08:01:41;;;;;;;14.45;8.30;;;18.80;60.20;;;;;;5114087;28;20024;-57
2021/01/03 08:04:11;;;;;;;16.25;8.50;;;18.90;60.30;;;;;;5114765;28;20038;-57
2021/01/03 08:06:37;;;;;;;16.27;8.23;;;18.80;60.30;;;;;;5114095;28;20040;-57
2021/01/03 08:09:03;;;;;;;14.20;8.25;;;18.80;60.30;;;;;;5114207;28;20054;-58
2021/01/03 08:11:36;;;;;;;14.02;7.93;;;18.80;60.40;;;;;;5114219;28;20028;-57
2021/01/03 08:14:05;;;;;;;15.98;8.73;;;18.80;60.50;;;;;;5113927;28;20473;-58
2021/01/03 08:16:32;;;;;;;13.70;7.80;;;18.70;60.60;;;;;;5114203;28;20032;-57
2021/01/03 08:19:05;;;;;;;14.88;8.20;;;18.70;60.70;;;;;;5114127;28;20052;-57
2021/01/03 08:21:38;;;;;;;13.93;7.07;;;18.60;60.80;;;;;;5113830;28;20031;-57
2021/01/03 08:24:14;;;;;;;13.35;7.53;;;18.60;60.90;;;;;;5114064;28;20068;-58
2021/01/03 08:27:08;;;;;;;13.95;7.13;;;18.60;61.10;;;;;;5113993;28;20035;-57
2021/01/03 08:29:40;;;;;;;13.95;7.78;;;18.50;61.40;;;;;;5114435;28;20024;-57
2021/01/03 08:32:14;;;;;;;12.82;7.70;;;18.50;61.30;;;;;;5114072;28;20124;-58
2021/01/03 08:34:44;;;;;;;14.52;7.20;;;18.60;61.10;;;;;;5113857;28;20081;-57
2021/01/03 08:37:27;;;;;;;11.25;6.28;;;18.60;61.00;;;;;;5113994;28;20032;-57
2021/01/03 08:39:54;;;;;;;12.70;6.80;;;18.50;60.90;;;;;;5115725;28;20503;-57
2021/01/03 08:42:27;;;;;;;13.15;6.57;;;18.50;61.20;;;;;;5118310;28;20039;-57
2021/01/03 08:44:57;;;;;;;10.32;5.82;;;18.40;61.40;;;;;;5118051;28;20032;-57
2021/01/03 08:47:29;;;;;;;14.65;7.22;;;18.30;61.60;;;;;;5117938;28;20534;-57
2021/01/03 08:50:06;;;;;;;10.77;6.03;;;18.30;61.70;;;;;;5118092;28;20055;-57
2021/01/03 08:52:31;;;;;;;14.32;6.60;;;18.20;61.90;;;;;;5118066;28;20031;-57
2021/01/03 08:55:10;;;;;;;12.45;6.82;;;18.20;61.90;;;;;;5117851;28;20381;-57
2021/01/03 08:57:38;;;;;;;12.23;6.68;;;18.20;62.10;;;;;;5117745;28;20026;-57
2021/01/03 09:00:06;;;;;;;11.90;6.22;;;18.10;62.30;;;;;;5117977;28;20020;-58
2021/01/03 09:02:32;;;;;;;13.38;6.07;;;18.00;62.30;;;;;;5117508;28;20020;-57
2021/01/03 09:05:02;;;;;;;13.20;6.30;;;18.10;62.40;;;;;;5117567;28;20043;-57
2021/01/03 09:07:34;;;;;;;12.30;6.10;;;18.00;62.40;;;;;;5117606;28;20023;-57
2021/01/03 09:10:01;;;;;;;12.23;6.15;;;18.00;62.60;;;;;;5117681;28;20040;-57
2021/01/03 09:13:03;;;;;;;12.13;6.65;;;18.00;62.70;;;;;;5117203;28;20038;-57
2021/01/03 09:15:30;;;;;;;11.32;5.95;;;18.00;62.60;;;;;;5117720;28;20031;-57
2021/01/03 09:18:20;;;;;;;11.75;5.70;;;18.00;62.70;;;;;;5117487;28;20483;-57
2021/01/03 09:20:47;;;;;;;10.60;5.70;;;18.00;62.70;;;;;;5117370;28;20385;-57
2021/01/03 09:23:20;;;;;;;12.80;5.80;;;18.10;62.40;;;;;;5117315;28;20027;-57
2021/01/03 09:25:53;;;;;;;20.42;7.22;;;18.10;61.80;;;;;;5117124;28;20397;-55
2021/01/03 09:28:30;;;;;;;21.58;6.38;;;18.30;61.90;;;;;;5117503;28;20373;-54
2021/01/03 09:31:14;;;;;;;13.48;5.47;;;18.30;62.10;;;;;;5116897;27;20023;-57
2021/01/03 09:33:44;;;;;;;20.63;6.15;;;18.40;62.60;;;;;;5116994;28;20035;-55
2021/01/03 09:36:10;;;;;;;13.48;6.10;;;18.60;63.10;;;;;;5117261;28;20024;-53
2021/01/03 09:38:57;;;;;;;11.30;5.93;;;18.80;62.40;;;;;;5117014;28;20027;-54
2021/01/03 09:41:51;;;;;;;15.18;5.88;;;18.90;61.60;;;;;;5117064;27;20426;-55
2021/01/03 09:44:29;;;;;;;14.48;5.93;;;18.90;61.20;;;;;;5117127;28;20062;-57
2021/01/03 09:47:02;;;;;;;11.68;5.03;;;18.70;61.30;;;;;;5116957;28;20035;-57
2021/01/03 09:49:37;;;;;;;11.13;5.22;;;18.70;61.60;;;;;;5116602;28;20032;-57
2021/01/03 09:52:20;;;;;;;14.07;5.32;;;18.70;61.40;;;;;;5115914;28;20080;-57
2021/01/03 09:55:02;;;;;;;10.38;4.95;;;18.60;61.90;;;;;;5117135;28;20032;-56
2021/01/03 09:57:49;;;;;;;18.10;5.95;;;18.60;61.90;;;;;;5116913;28;20024;-54
2021/01/03 10:00:21;;;;;;;12.70;4.70;;;18.60;62.70;;;;;;5116217;28;20020;-55
2021/01/03 10:02:47;;;;;;;10.50;4.53;;;18.60;63.40;;;;;;5116350;28;20110;-57
2021/01/03 10:05:29;;;;;;;12.77;5.03;;;18.60;63.70;;;;;;5116276;28;20481;-57
2021/01/03 10:07:57;;;;;;;12.27;4.97;;;18.60;63.90;;;;;;5116573;28;20111;-57
2021/01/03 10:10:38;;;;;;;11.07;4.85;;;18.50;63.50;;;;;;5116342;28;20055;-58
2021/01/03 10:13:09;;;;;;;11.27;6.05;;;18.40;63.50;;;;;;5116615;27;20081;-57
2021/01/03 10:15:35;;;;;;;12.90;4.63;;;18.30;63.60;;;;;;5116121;28;20031;-57
2021/01/03 10:18:06;;;;;;;13.82;5.05;;;18.30;63.80;;;;;;5116192;28;20103;-57
2021/01/03 10:20:32;;;;;;;9.70;4.00;;;18.30;63.80;;;;;;5116396;28;20027;-57
2021/01/03 10:22:58;;;;;;;13.77;5.28;;;18.20;64.00;;;;;;5116194;28;20020;-59
2021/01/03 10:25:24;;;;;;;10.02;4.53;;;18.20;64.10;;;;;;5113876;27;20045;-55
2021/01/03 10:28:13;;;;;;;9.32;4.35;;;18.20;64.00;;;;;;5116028;28;20038;-58
2021/01/03 10:30:43;;;;;;;9.77;4.55;;;18.20;64.10;;;;;;5115967;28;20034;-56
2021/01/03 10:33:10;;;;;;;13.60;5.67;;;18.20;64.30;;;;;;5115919;28;20031;-57
2021/01/03 10:35:36;;;;;;;12.73;4.50;;;18.20;64.70;;;;;;5115846;28;20381;-59
2021/01/03 10:38:04;;;;;;;11.90;4.53;;;18.30;65.00;;;;;;5115428;28;20023;-59
2021/01/03 10:40:30;;;;;;;63.20;33.67;;;18.30;64.30;;;;;;5116057;28;20042;-60
2021/01/03 10:42:55;;;;;;;94.10;52.90;;;18.20;63.00;;;;;;5115659;28;20488;-61
2021/01/03 10:45:22;;;;;;;63.65;36.42;;;18.20;62.60;;;;;;5115410;27;20484;-63
2021/01/03 10:47:48;;;;;;;82.68;43.50;;;18.10;61.30;;;;;;5114798;28;20377;-59
2021/01/03 10:50:15;;;;;;;97.85;50.78;;;18.00;60.40;;;;;;5115288;28;20024;-61
2021/01/03 10:52:41;;;;;;;150.80;82.30;;;17.90;59.10;;;;;;5115493;28;20042;-59
2021/01/03 10:55:07;;;;;;;134.25;72.97;;;17.90;59.20;;;;;;5115368;28;20384;-60
2021/01/03 10:57:33;;;;;;;153.32;83.72;;;17.90;59.30;;;;;;5115384;28;20023;-58
2021/01/03 10:59:59;;;;;;;129.02;72.60;;;17.90;59.30;;;;;;5115383;27;20423;-57
2021/01/03 11:02:25;;;;;;;110.32;61.38;;;17.80;59.80;;;;;;5115092;28;20027;-59
2021/01/03 11:04:52;;;;;;;103.90;57.00;;;17.90;59.60;;;;;;5114019;28;20035;-57
2021/01/03 11:07:18;;;;;;;89.57;48.63;;;17.90;59.60;;;;;;5115178;28;20492;-59
2021/01/03 11:09:44;;;;;;;85.32;44.53;;;17.90;59.80;;;;;;5114168;28;20055;-59
2021/01/03 11:12:13;;;;;;;77.40;39.97;;;17.90;59.90;;;;;;5115144;28;20368;-59
2021/01/03 11:14:39;;;;;;;74.93;40.20;;;18.00;59.80;;;;;;5114923;28;20034;-59
2021/01/03 11:17:05;;;;;;;72.95;37.60;;;18.00;59.60;;;;;;5114833;28;20032;-59
2021/01/03 11:19:31;;;;;;;68.70;37.55;;;18.10;59.50;;;;;;5114615;28;20052;-58
2021/01/03 11:22:00;;;;;;;61.35;34.33;;;18.20;59.30;;;;;;5115099;28;20530;-59
2021/01/03 11:24:25;;;;;;;56.55;32.22;;;18.20;59.20;;;;;;5115149;28;20020;-59
2021/01/03 11:26:52;;;;;;;58.13;33.42;;;18.30;59.10;;;;;;5115011;28;20555;-59
2021/01/03 11:29:23;;;;;;;55.10;30.48;;;18.30;59.30;;;;;;5114916;28;20093;-59
2021/01/03 11:31:51;;;;;;;53.85;31.60;;;18.30;59.60;;;;;;5115010;28;20035;-60
2021/01/03 11:34:24;;;;;;;51.25;29.90;;;18.30;59.90;;;;;;5114969;28;20084;-60
2021/01/03 11:37:13;;;;;;;51.47;27.15;;;18.30;59.80;;;;;;5114894;28;20121;-59
2021/01/03 11:39:40;;;;;;;52.33;28.00;;;18.40;59.60;;;;;;5114762;28;20064;-59
2021/01/03 11:42:12;;;;;;;49.90;26.42;;;18.50;59.30;;;;;;5113380;28;20055;-60
2021/01/03 11:44:40;;;;;;;47.78;24.02;;;18.60;59.10;;;;;;5113292;28;20027;-61
2021/01/03 11:47:09;;;;;;;49.70;27.08;;;18.70;59.00;;;;;;5112197;28;20396;-60
2021/01/03 11:49:36;;;;;;;44.50;24.30;;;18.70;58.70;;;;;;5112141;28;20027;-60
2021/01/03 11:52:03;;;;;;;51.17;24.98;;;18.70;58.60;;;;;;5112078;28;20028;-60
2021/01/03 11:54:29;;;;;;;47.72;24.77;;;18.60;59.30;;;;;;5113397;28;20050;-60
2021/01/03 11:56:58;;;;;;;44.00;24.35;;;18.60;58.80;;;;;;5113739;28;20460;-60
2021/01/03 11:59:25;;;;;;;39.03;21.45;;;18.50;59.40;;;;;;5113621;28;20028;-60
2021/01/03 12:02:08;;;;;;;43.35;22.90;;;18.50;58.90;;;;;;5114276;28;20449;-59
2021/01/03 12:04:34;;;;;;;41.60;22.42;;;18.50;59.00;;;;;;5114220;28;20028;-60
2021/01/03 12:07:06;;;;;;;41.38;21.70;;;18.50;59.00;;;;;;5114214;28;20030;-60
2021/01/03 12:09:32;;;;;;;38.45;21.85;;;18.40;59.00;;;;;;5114344;28;20039;-59
2021/01/03 12:12:00;;;;;;;41.35;21.52;;;18.40;59.10;;;;;;5114139;28;20457;-60
2021/01/03 12:14:27;;;;;;;42.08;21.90;;;18.30;59.10;;;;;;5113504;28;20090;-59
2021/01/03 12:17:01;;;;;;;36.97;20.75;;;18.30;59.20;;;;;;5114357;28;20100;-59
2021/01/03 12:19:27;;;;;;;38.97;22.63;;;18.30;59.20;;;;;;5114074;28;20031;-60
2021/01/03 12:22:01;;;;;;;39.38;20.85;;;18.30;59.10;;;;;;5113935;28;20078;-60
2021/01/03 12:24:27;;;;;;;41.03;19.48;;;18.20;59.20;;;;;;5113757;28;20463;-59
2021/01/03 12:26:53;;;;;;;33.85;19.65;;;18.20;59.30;;;;;;5113889;28;20111;-59
2021/01/03 12:29:20;;;;;;;30.60;18.55;;;18.20;59.40;;;;;;5113904;28;20106;-59
2021/01/03 12:31:54;;;;;;;34.92;19.73;;;18.10;59.30;;;;;;5113935;28;20062;-59
2021/01/03 12:34:22;;;;;;;31.88;18.27;;;18.10;59.30;;;;;;5114108;28;20035;-60
2021/01/03 12:36:47;;;;;;;31.95;17.63;;;18.00;59.40;;;;;;5114448;28;20093;-60
2021/01/03 12:39:15;;;;;;;35.78;18.92;;;18.00;59.30;;;;;;5114130;28;20415;-59
2021/01/03 12:41:40;;;;;;;33.60;17.77;;;18.10;59.30;;;;;;5113955;28;20039;-59
2021/01/03 12:44:07;;;;;;;29.52;17.20;;;18.20;58.80;;;;;;5113953;28;20032;-59
2021/01/03 12:46:39;;;;;;;37.15;18.33;;;18.30;58.50;;;;;;5113747;28;20027;-59
2021/01/03 12:49:06;;;;;;;31.25;17.15;;;18.30;58.40;;;;;;5113806;28;20511;-59